Alton, Missouri
Current Conditions -  °F | °C
As of 1:53 AM on Monday 22 Dec 2014 (Local Time) from KUNO Reporting Station
Overcast Overcast  
Wind Chill:   Ceiling: 2600
Heat Index:   Visibility: 10mi
Dew Point:   Wind: 9mph
Humidity: 73%   Direction: 120°ESE
Pressure: 29.81"   Gusts: NA
Location:  36.69°N, 91.4°W
Report Text: KUNO 220753Z AUTO 12008KT 10SM OVC026 05/01 A2981 RMK AO2 SLP099 T00500006 $
Loading
Personal Weather Stations






























Interactive Weather Map New forecast layout! Learn more

10-Day Weather Forecast

Advertisements
Track Severe Weather on mobile